Terminal Aerodrome Forecast
Issued by NWS El Paso, TX

Home | Current Version | Previous Version | Text Only | Print | Product List | Glossary On
Versions: 1 2 3 4 5 6 7 8 9 10 11 12 13
276
FTUS44 KEPZ 231138
TAFELP
TAF
KELP 231138Z 2312/2412 21008KT P6SM FEW250
     FM231800 24017G27KT P6SM FEW140 SCT250
     FM240500 26018G30KT P6SM VCSH SCT110 BKN200
      TEMPO 2406/2410 27025G38KT=

USA.gov is the U.S. government's official web portal to all federal, state and local government web resources and services.